createdAt,value
2022-08-28T00:00:41.833Z,15.30
2022-08-28T00:03:12.071Z,15.20
2022-08-28T00:05:42.106Z,15.20
2022-08-28T00:08:15.379Z,15.20
2022-08-28T00:10:44.301Z,15.10
2022-08-28T00:13:18.481Z,15.10
2022-08-28T00:15:49.245Z,15.00
2022-08-28T00:18:18.296Z,15.00
2022-08-28T00:20:47.317Z,15.00
2022-08-28T00:23:17.213Z,15.00
2022-08-28T00:25:45.466Z,14.90
2022-08-28T00:28:23.976Z,14.90
2022-08-28T00:30:55.277Z,14.80
2022-08-28T00:33:27.249Z,14.80
2022-08-28T00:35:55.995Z,14.70
2022-08-28T00:38:27.142Z,14.70
2022-08-28T00:40:57.360Z,14.70
2022-08-28T00:43:35.792Z,14.60
2022-08-28T00:46:06.333Z,14.60
2022-08-28T00:48:35.787Z,14.60
2022-08-28T00:51:22.756Z,14.60
2022-08-28T00:53:58.443Z,14.60
2022-08-28T00:56:28.732Z,14.60
2022-08-28T00:58:59.793Z,14.60
2022-08-28T01:01:28.694Z,14.50
2022-08-28T01:03:57.301Z,14.50
2022-08-28T01:06:25.702Z,14.50
2022-08-28T01:08:55.815Z,14.50
2022-08-28T01:11:29.091Z,14.50
2022-08-28T01:14:01.770Z,14.40
2022-08-28T01:16:33.970Z,14.40
2022-08-28T01:19:04.311Z,14.40
2022-08-28T01:21:40.955Z,14.40
2022-08-28T01:24:14.791Z,14.30
2022-08-28T01:26:43.723Z,14.40
2022-08-28T01:29:13.098Z,14.40
2022-08-28T01:31:42.872Z,14.30
2022-08-28T01:34:14.005Z,14.30
2022-08-28T01:36:43.534Z,14.30
2022-08-28T01:39:16.234Z,14.20
2022-08-28T01:41:47.499Z,14.20
2022-08-28T01:44:17.929Z,14.10
2022-08-28T01:46:47.676Z,14.20
2022-08-28T01:49:15.944Z,14.20
2022-08-28T01:51:44.766Z,14.20
2022-08-28T01:54:14.588Z,14.20
2022-08-28T01:56:45.685Z,14.20
2022-08-28T01:59:15.319Z,14.10
2022-08-28T02:01:44.034Z,14.20
2022-08-28T02:04:13.196Z,14.20
2022-08-28T02:06:42.436Z,14.10
2022-08-28T02:09:14.578Z,14.10
2022-08-28T02:11:46.394Z,14.10
2022-08-28T02:14:16.219Z,14.10
2022-08-28T02:16:44.366Z,14.10
2022-08-28T02:19:13.217Z,14.00
2022-08-28T02:21:41.816Z,14.00
2022-08-28T02:24:10.323Z,14.00
2022-08-28T02:26:38.663Z,14.00
2022-08-28T02:29:08.243Z,13.90
2022-08-28T02:31:36.523Z,13.90
2022-08-28T02:34:06.013Z,13.90
2022-08-28T02:36:34.845Z,13.80
2022-08-28T02:39:03.334Z,13.80
2022-08-28T02:41:31.573Z,13.90
2022-08-28T02:43:59.871Z,13.90
2022-08-28T02:46:29.531Z,13.80
2022-08-28T02:48:57.836Z,13.80
2022-08-28T02:51:26.297Z,13.80
2022-08-28T02:53:54.709Z,13.80
2022-08-28T02:56:23.001Z,13.80
2022-08-28T02:58:51.249Z,13.70
2022-08-28T03:01:22.596Z,13.80
2022-08-28T03:03:52.403Z,13.70
2022-08-28T03:06:20.713Z,13.70
2022-08-28T03:08:49.077Z,13.70
2022-08-28T03:11:17.505Z,13.70
2022-08-28T03:13:45.801Z,13.70
2022-08-28T03:16:14.145Z,13.70
2022-08-28T03:18:42.561Z,13.70
2022-08-28T03:21:12.781Z,13.70
2022-08-28T03:23:41.449Z,13.70
2022-08-28T03:26:12.684Z,13.70
2022-08-28T03:28:43.991Z,13.70
2022-08-28T03:31:14.903Z,13.70
2022-08-28T03:33:43.828Z,13.70
2022-08-28T03:36:19.131Z,13.70
2022-08-28T03:38:47.266Z,13.70
2022-08-28T03:41:18.729Z,13.70
2022-08-28T03:43:47.448Z,13.70
2022-08-28T03:46:18.046Z,13.70
2022-08-28T03:48:47.102Z,13.70
2022-08-28T03:51:20.000Z,13.70
2022-08-28T03:53:54.099Z,13.70
2022-08-28T03:56:24.868Z,13.70
2022-08-28T03:58:55.537Z,13.60
2022-08-28T04:01:24.077Z,13.60
2022-08-28T04:03:52.459Z,13.60
2022-08-28T04:06:22.962Z,13.50
2022-08-28T04:08:51.887Z,13.50
2022-08-28T04:11:20.038Z,13.50
2022-08-28T04:13:48.536Z,13.50
2022-08-28T04:16:19.543Z,13.40
2022-08-28T04:18:50.284Z,13.40
2022-08-28T04:21:23.575Z,13.40
2022-08-28T04:23:52.156Z,13.40
2022-08-28T04:26:21.748Z,13.30
2022-08-28T04:28:50.687Z,13.30
2022-08-28T04:31:31.100Z,13.30
2022-08-28T04:34:01.537Z,13.20
2022-08-28T04:36:33.766Z,13.30
2022-08-28T04:39:03.005Z,13.20
2022-08-28T04:41:31.351Z,13.20
2022-08-28T04:44:00.119Z,13.20
2022-08-28T04:46:31.150Z,13.20
2022-08-28T04:49:00.202Z,13.20
2022-08-28T04:51:30.359Z,13.20
2022-08-28T04:53:58.850Z,13.20
2022-08-28T04:56:27.799Z,13.20
2022-08-28T04:58:56.107Z,13.20
2022-08-28T05:01:25.782Z,13.20
2022-08-28T05:03:57.538Z,13.10
2022-08-28T05:06:28.191Z,13.10
2022-08-28T05:08:59.933Z,13.10
2022-08-28T05:11:33.837Z,13.10
2022-08-28T05:14:04.876Z,13.10
2022-08-28T05:16:34.516Z,13.20
2022-08-28T05:19:04.429Z,13.20
2022-08-28T05:21:32.936Z,13.10
2022-08-28T05:24:02.576Z,13.20
2022-08-28T05:26:31.179Z,13.20
2022-08-28T05:29:00.417Z,13.20
2022-08-28T05:31:30.862Z,13.20
2022-08-28T05:34:00.244Z,13.30
2022-08-28T05:36:32.345Z,13.30
2022-08-28T05:39:05.778Z,13.40
2022-08-28T05:41:35.350Z,13.40
2022-08-28T05:44:06.158Z,13.40
2022-08-28T05:46:34.986Z,13.50
2022-08-28T05:49:07.778Z,13.50
2022-08-28T05:51:40.392Z,13.50
2022-08-28T05:54:10.459Z,13.60
2022-08-28T05:56:43.025Z,13.70
2022-08-28T05:59:12.326Z,13.70
2022-08-28T06:01:43.150Z,13.70
2022-08-28T06:04:13.521Z,13.70
2022-08-28T06:06:42.415Z,13.80
2022-08-28T06:09:14.600Z,13.80
2022-08-28T06:11:44.675Z,13.80
2022-08-28T06:14:17.982Z,13.90
2022-08-28T06:16:48.115Z,13.90
2022-08-28T06:19:17.506Z,13.90
2022-08-28T06:21:46.857Z,14.00
2022-08-28T06:24:16.430Z,14.00
2022-08-28T06:26:44.794Z,14.10
2022-08-28T06:29:15.647Z,14.10
2022-08-28T06:31:43.828Z,14.20
2022-08-28T06:34:11.979Z,14.20
2022-08-28T06:36:42.987Z,14.30
2022-08-28T06:39:13.241Z,14.40
2022-08-28T06:41:43.874Z,14.40
2022-08-28T06:44:13.534Z,14.50
2022-08-28T06:46:42.377Z,14.50
2022-08-28T06:49:12.526Z,14.60
2022-08-28T06:51:41.725Z,14.70
2022-08-28T06:54:10.361Z,14.70
2022-08-28T06:56:38.751Z,14.80
2022-08-28T06:59:08.364Z,14.80
2022-08-28T07:01:38.215Z,14.90
2022-08-28T07:04:09.027Z,15.00
2022-08-28T07:06:40.879Z,15.00
2022-08-28T07:09:11.262Z,15.10
2022-08-28T07:11:40.247Z,15.20
2022-08-28T07:14:09.977Z,15.20
2022-08-28T07:16:39.638Z,15.30
2022-08-28T07:19:10.533Z,15.30
2022-08-28T07:21:41.709Z,15.40
2022-08-28T07:24:11.217Z,15.50
2022-08-28T07:26:41.866Z,15.60
2022-08-28T07:29:11.979Z,15.70
2022-08-28T07:31:42.409Z,15.80
2022-08-28T07:34:11.558Z,15.90
2022-08-28T07:36:40.672Z,15.90
2022-08-28T07:39:09.741Z,16.00
2022-08-28T07:41:40.454Z,16.10
2022-08-28T07:44:29.426Z,16.20
2022-08-28T07:46:59.354Z,16.20
2022-08-28T07:49:27.810Z,16.30
2022-08-28T07:51:55.971Z,16.40
2022-08-28T07:54:26.573Z,16.40
2022-08-28T07:56:55.168Z,16.60
2022-08-28T07:59:25.048Z,16.60
2022-08-28T08:01:54.384Z,16.70
2022-08-28T08:04:24.624Z,16.80
2022-08-28T08:06:57.849Z,16.90
2022-08-28T08:09:28.633Z,16.90
2022-08-28T08:11:57.580Z,17.10
2022-08-28T08:14:27.366Z,17.20
2022-08-28T08:16:55.639Z,17.20
2022-08-28T08:19:23.910Z,17.20
2022-08-28T08:21:55.031Z,17.30
2022-08-28T08:24:26.357Z,17.40
2022-08-28T08:27:00.241Z,17.40
2022-08-28T08:29:32.367Z,17.40
2022-08-28T08:32:05.822Z,17.50
2022-08-28T08:34:36.329Z,17.50
2022-08-28T08:37:05.817Z,17.50
2022-08-28T08:39:34.945Z,17.60
2022-08-28T08:42:06.037Z,17.50
2022-08-28T08:44:40.356Z,17.60
2022-08-28T08:47:14.762Z,17.60
2022-08-28T08:49:49.018Z,17.60
2022-08-28T08:52:32.170Z,17.70
2022-08-28T08:55:15.208Z,17.80
2022-08-28T08:57:46.057Z,17.80
2022-08-28T09:00:20.231Z,17.80
2022-08-28T09:02:55.122Z,17.70
2022-08-28T09:05:34.183Z,17.70
2022-08-28T09:08:04.560Z,17.70
2022-08-28T09:10:39.575Z,17.80
2022-08-28T09:13:16.995Z,17.90
2022-08-28T09:15:50.634Z,17.90
2022-08-28T09:18:22.917Z,18.00
2022-08-28T09:20:52.772Z,18.00
2022-08-28T09:23:23.188Z,18.00
2022-08-28T09:25:55.875Z,18.00
2022-08-28T09:28:30.564Z,18.00
2022-08-28T09:31:05.770Z,18.10
2022-08-28T09:33:38.826Z,18.10
2022-08-28T09:36:26.667Z,18.20
2022-08-28T09:39:13.078Z,18.30
2022-08-28T09:42:07.188Z,18.30
2022-08-28T09:44:47.320Z,18.40
2022-08-28T09:47:47.238Z,18.40
2022-08-28T09:50:35.251Z,18.40
2022-08-28T09:53:19.367Z,18.30
2022-08-28T09:55:57.047Z,18.40
2022-08-28T09:58:33.472Z,18.40
2022-08-28T10:01:11.258Z,18.40
2022-08-28T10:03:51.581Z,18.50
2022-08-28T10:06:25.507Z,18.50
2022-08-28T10:09:05.163Z,18.50
2022-08-28T10:11:44.367Z,18.60
2022-08-28T10:14:24.861Z,18.60
2022-08-28T10:17:03.352Z,18.60
2022-08-28T10:19:40.778Z,18.70
2022-08-28T10:22:24.124Z,18.70
2022-08-28T10:25:20.036Z,18.80
2022-08-28T10:28:10.147Z,18.90
2022-08-28T10:30:44.928Z,19.00
2022-08-28T10:33:25.181Z,19.10
2022-08-28T10:35:59.736Z,19.10
2022-08-28T10:38:35.563Z,19.00
2022-08-28T10:41:09.598Z,18.90
2022-08-28T10:43:43.719Z,19.10
2022-08-28T10:46:16.029Z,19.20
2022-08-28T10:48:48.851Z,19.20
2022-08-28T10:51:35.479Z,19.20
2022-08-28T10:54:14.859Z,19.20
2022-08-28T10:56:56.187Z,19.20
2022-08-28T10:59:27.336Z,19.20
2022-08-28T11:01:55.516Z,19.20
2022-08-28T11:04:28.511Z,19.20
2022-08-28T11:07:02.339Z,19.20
2022-08-28T11:09:35.028Z,19.20
2022-08-28T11:12:07.045Z,19.20
2022-08-28T11:14:47.509Z,19.20
2022-08-28T11:17:39.193Z,19.10
2022-08-28T11:20:15.289Z,19.10
2022-08-28T11:22:47.416Z,19.10
2022-08-28T11:25:26.669Z,19.10
2022-08-28T11:28:18.790Z,19.10
2022-08-28T11:30:48.556Z,19.10
2022-08-28T11:33:39.024Z,19.20
2022-08-28T11:36:11.177Z,19.40
2022-08-28T11:39:05.864Z,19.50
2022-08-28T11:41:36.616Z,19.40
2022-08-28T11:44:28.371Z,19.40
2022-08-28T11:47:16.803Z,19.40
2022-08-28T11:49:46.480Z,19.30
2022-08-28T11:52:37.253Z,19.40
2022-08-28T11:55:20.635Z,19.60
2022-08-28T12:00:48.741Z,19.60
2022-08-28T12:03:25.261Z,19.50
2022-08-28T12:05:56.037Z,19.50
2022-08-28T12:09:06.919Z,19.50
2022-08-28T12:12:10.416Z,19.50
2022-08-28T12:15:12.364Z,19.40
2022-08-28T12:17:47.611Z,19.40
2022-08-28T12:20:25.121Z,19.50
2022-08-28T12:22:55.913Z,19.70
2022-08-28T12:25:33.225Z,19.80
2022-08-28T12:28:08.169Z,19.80
2022-08-28T12:30:53.185Z,19.70
2022-08-28T12:33:28.698Z,19.70
2022-08-28T12:36:02.121Z,19.70
2022-08-28T12:38:32.216Z,19.60
2022-08-28T12:41:00.605Z,19.50
2022-08-28T12:43:45.668Z,19.40
2022-08-28T12:46:24.713Z,19.40
2022-08-28T12:48:55.275Z,19.40
2022-08-28T12:51:25.409Z,19.50
2022-08-28T12:53:56.058Z,19.60
2022-08-28T12:56:25.567Z,19.80
2022-08-28T12:58:54.177Z,19.90
2022-08-28T13:01:30.932Z,20.10
2022-08-28T13:04:02.611Z,20.30
2022-08-28T13:06:33.460Z,20.30
2022-08-28T13:09:04.565Z,20.30
2022-08-28T13:11:35.846Z,20.20
2022-08-28T13:14:04.367Z,20.20
2022-08-28T13:16:40.914Z,20.20
2022-08-28T13:19:21.806Z,20.40
2022-08-28T13:21:58.853Z,20.40
2022-08-28T13:24:45.647Z,20.40
2022-08-28T13:27:35.372Z,20.00
2022-08-28T13:30:20.957Z,19.90
2022-08-28T13:32:59.588Z,19.80
2022-08-28T13:35:35.443Z,19.90
2022-08-28T13:38:04.986Z,20.00
2022-08-28T13:40:57.366Z,20.40
2022-08-28T13:43:29.306Z,20.80
2022-08-28T13:45:57.810Z,21.10
2022-08-28T13:48:28.874Z,21.30
2022-08-28T13:51:03.154Z,21.30
2022-08-28T13:53:34.000Z,21.20
2022-08-28T13:56:02.807Z,21.20
2022-08-28T13:58:31.009Z,21.20
2022-08-28T14:00:59.512Z,21.10
2022-08-28T14:03:37.837Z,21.00
2022-08-28T14:06:08.512Z,20.70
2022-08-28T14:08:36.725Z,20.60
2022-08-28T14:11:07.139Z,21.00
2022-08-28T14:13:35.916Z,21.30
2022-08-28T14:16:06.736Z,21.80
2022-08-28T14:18:36.438Z,22.10
2022-08-28T14:21:06.608Z,22.40
2022-08-28T14:23:35.399Z,22.70
2022-08-28T14:26:06.198Z,23.00
2022-08-28T14:28:34.353Z,23.40
2022-08-28T14:31:05.897Z,23.80
2022-08-28T14:33:36.988Z,23.50
2022-08-28T14:36:07.045Z,22.90
2022-08-28T14:38:35.736Z,22.70
2022-08-28T14:41:03.947Z,22.60
2022-08-28T14:43:32.040Z,22.40
2022-08-28T14:46:00.552Z,22.20
2022-08-28T14:48:29.266Z,22.00
2022-08-28T14:50:57.436Z,22.00
2022-08-28T14:53:26.959Z,22.20
2022-08-28T14:55:55.219Z,22.50
2022-08-28T14:58:23.393Z,22.70
2022-08-28T15:00:52.905Z,22.50
2022-08-28T15:03:21.698Z,22.30
2022-08-28T15:06:00.221Z,22.20
2022-08-28T15:08:29.844Z,22.00
2022-08-28T15:10:58.348Z,21.60
2022-08-28T15:13:26.647Z,21.40
2022-08-28T15:16:05.838Z,21.30
2022-08-28T15:18:45.659Z,21.50
2022-08-28T15:21:18.805Z,21.90
2022-08-28T15:23:50.334Z,22.10
2022-08-28T15:26:18.676Z,22.20
2022-08-28T15:28:47.405Z,22.30
2022-08-28T15:31:16.486Z,22.50
2022-08-28T15:33:45.494Z,22.60
2022-08-28T15:36:13.823Z,22.70
2022-08-28T15:38:59.746Z,22.80
2022-08-28T15:41:29.692Z,23.00
2022-08-28T15:44:01.096Z,23.10
2022-08-28T15:46:33.550Z,23.20
2022-08-28T15:49:02.278Z,23.00
2022-08-28T15:51:31.895Z,22.80
2022-08-28T15:54:01.431Z,22.70
2022-08-28T15:56:31.198Z,22.50
2022-08-28T15:58:59.316Z,22.50
2022-08-28T16:01:27.497Z,22.70
2022-08-28T16:03:55.929Z,22.80
2022-08-28T16:06:24.707Z,22.80
2022-08-28T16:08:52.950Z,22.80
2022-08-28T16:11:23.011Z,22.60
2022-08-28T16:13:53.517Z,22.40
2022-08-28T16:16:22.445Z,22.10
2022-08-28T16:18:50.681Z,22.40
2022-08-28T16:21:19.907Z,22.70
2022-08-28T16:23:48.173Z,22.60
2022-08-28T16:26:16.781Z,22.20
2022-08-28T16:28:45.738Z,22.00
2022-08-28T16:31:19.028Z,21.50
2022-08-28T16:33:48.070Z,21.40
2022-08-28T16:36:17.039Z,21.20
2022-08-28T16:38:47.095Z,21.20
2022-08-28T16:41:18.075Z,20.90
2022-08-28T16:43:47.165Z,20.70
2022-08-28T16:46:19.559Z,20.60
2022-08-28T16:48:51.252Z,20.50
2022-08-28T16:51:20.183Z,20.20
2022-08-28T16:53:48.445Z,20.10
2022-08-28T16:56:18.590Z,20.20
2022-08-28T16:58:47.050Z,20.10
2022-08-28T17:01:21.511Z,19.90
2022-08-28T17:03:53.374Z,19.90
2022-08-28T17:06:24.401Z,20.00
2022-08-28T17:08:56.599Z,20.00
2022-08-28T17:11:26.477Z,19.90
2022-08-28T17:13:55.649Z,19.80
2022-08-28T17:16:26.620Z,19.80
2022-08-28T17:18:54.985Z,19.90
2022-08-28T17:21:40.970Z,19.90
2022-08-28T17:24:09.962Z,19.90
2022-08-28T17:26:38.136Z,19.70
2022-08-28T17:29:06.709Z,19.70
2022-08-28T17:31:36.517Z,19.70
2022-08-28T17:34:05.627Z,19.60
2022-08-28T17:36:34.452Z,19.60
2022-08-28T17:39:03.629Z,19.60
2022-08-28T17:41:32.029Z,19.60
2022-08-28T17:44:01.151Z,19.50
2022-08-28T17:46:32.778Z,19.40
2022-08-28T17:49:06.010Z,19.40
2022-08-28T17:51:43.295Z,19.30
2022-08-28T17:54:13.290Z,19.20
2022-08-28T17:56:41.536Z,19.20
2022-08-28T17:59:10.058Z,19.10
2022-08-28T18:01:38.902Z,19.00
2022-08-28T18:04:09.137Z,18.90
2022-08-28T18:06:37.616Z,18.70
2022-08-28T18:09:06.967Z,18.70
2022-08-28T18:11:35.381Z,18.60
2022-08-28T18:14:04.376Z,18.60
2022-08-28T18:16:33.979Z,18.50
2022-08-28T18:19:02.917Z,18.50
2022-08-28T18:21:32.885Z,18.40
2022-08-28T18:24:01.233Z,18.40
2022-08-28T18:26:29.647Z,18.30
2022-08-28T18:28:58.144Z,18.20
2022-08-28T18:31:27.137Z,18.10
2022-08-28T18:33:55.507Z,18.10
2022-08-28T18:36:24.197Z,18.10
2022-08-28T18:38:53.830Z,18.10
2022-08-28T18:41:25.633Z,18.00
2022-08-28T18:44:03.260Z,18.00
2022-08-28T18:46:33.257Z,18.10
2022-08-28T18:49:01.780Z,18.10
2022-08-28T18:51:35.161Z,18.10
2022-08-28T18:54:07.064Z,18.10
2022-08-28T18:56:36.168Z,18.00
2022-08-28T18:59:06.724Z,17.90
2022-08-28T19:01:35.235Z,17.90
2022-08-28T19:04:03.771Z,17.90
2022-08-28T19:06:32.270Z,17.90
2022-08-28T19:09:00.722Z,17.90
2022-08-28T19:11:31.444Z,17.90
2022-08-28T19:14:03.631Z,17.90
2022-08-28T19:16:33.676Z,17.90
2022-08-28T19:19:02.578Z,17.80
2022-08-28T19:21:31.006Z,17.80
2022-08-28T19:24:02.824Z,17.80
2022-08-28T19:26:36.741Z,17.80
2022-08-28T19:29:13.904Z,17.80
2022-08-28T19:31:45.086Z,17.80
2022-08-28T19:34:14.679Z,17.70
2022-08-28T19:36:44.767Z,17.70
2022-08-28T19:39:13.557Z,17.80
2022-08-28T19:41:44.286Z,17.60
2022-08-28T19:44:12.682Z,17.60
2022-08-28T19:46:41.268Z,17.60
2022-08-28T19:49:09.749Z,17.50
2022-08-28T19:51:39.390Z,17.60
2022-08-28T19:54:11.059Z,17.50
2022-08-28T19:56:40.027Z,17.50
2022-08-28T19:59:10.576Z,17.50
2022-08-28T20:01:41.632Z,17.50
2022-08-28T20:04:13.310Z,17.60
2022-08-28T20:06:41.642Z,17.50
2022-08-28T20:09:12.883Z,17.50
2022-08-28T20:11:42.161Z,17.40
2022-08-28T20:14:12.068Z,17.50
2022-08-28T20:16:43.176Z,17.40
2022-08-28T20:19:12.661Z,17.40
2022-08-28T20:21:43.686Z,17.40
2022-08-28T20:24:15.151Z,17.30
2022-08-28T20:26:43.403Z,17.30
2022-08-28T20:29:14.941Z,17.30
2022-08-28T20:31:47.844Z,17.30
2022-08-28T20:34:17.849Z,17.30
2022-08-28T20:36:46.624Z,17.30
2022-08-28T20:39:15.581Z,17.20
2022-08-28T20:41:44.740Z,17.20
2022-08-28T20:44:16.370Z,17.20
2022-08-28T20:46:51.089Z,17.30
2022-08-28T20:49:21.980Z,17.20
2022-08-28T20:52:01.192Z,17.20
2022-08-28T20:54:32.071Z,17.20
2022-08-28T20:57:02.962Z,17.20
2022-08-28T20:59:40.032Z,17.20
2022-08-28T21:02:11.828Z,17.20
2022-08-28T21:04:41.585Z,17.20
2022-08-28T21:07:10.202Z,17.10
2022-08-28T21:10:04.376Z,17.20
2022-08-28T21:12:26.916Z,17.20
2022-08-28T21:14:56.455Z,17.20
2022-08-28T21:17:29.587Z,17.10
2022-08-28T21:20:01.119Z,17.10
2022-08-28T21:22:31.439Z,17.10
2022-08-28T21:24:59.850Z,17.10
2022-08-28T21:27:28.258Z,17.00
2022-08-28T21:29:59.764Z,17.00
2022-08-28T21:32:29.307Z,17.00
2022-08-28T21:34:57.545Z,16.90
2022-08-28T21:37:25.676Z,16.90
2022-08-28T21:39:56.358Z,16.90
2022-08-28T21:42:25.269Z,16.90
2022-08-28T21:44:54.482Z,16.90
2022-08-28T21:47:25.506Z,17.00
2022-08-28T21:49:55.400Z,16.90
2022-08-28T21:52:26.088Z,16.90
2022-08-28T21:54:58.125Z,16.90
2022-08-28T21:57:26.685Z,16.90
2022-08-28T21:59:55.397Z,16.90
2022-08-28T22:02:25.295Z,16.90
2022-08-28T22:04:53.712Z,16.90
2022-08-28T22:07:23.809Z,16.90
2022-08-28T22:09:52.534Z,16.90
2022-08-28T22:12:20.714Z,16.80
2022-08-28T22:14:48.966Z,16.80
2022-08-28T22:17:17.195Z,16.80
2022-08-28T22:19:47.023Z,16.80
2022-08-28T22:22:33.130Z,16.80
2022-08-28T22:25:01.510Z,16.80
2022-08-28T22:27:31.821Z,16.80
2022-08-28T22:30:00.217Z,16.80
2022-08-28T22:32:28.430Z,16.70
2022-08-28T22:34:58.502Z,16.70
2022-08-28T22:37:26.846Z,16.70
2022-08-28T22:39:55.569Z,16.70
2022-08-28T22:42:23.940Z,16.70
2022-08-28T22:44:55.176Z,16.60
2022-08-28T22:47:23.504Z,16.60
2022-08-28T22:49:51.782Z,16.50
2022-08-28T22:52:21.376Z,16.50
2022-08-28T22:54:53.157Z,16.40
2022-08-28T22:57:21.809Z,16.40
2022-08-28T22:59:50.728Z,16.40
2022-08-28T23:02:22.367Z,16.30
2022-08-28T23:04:55.651Z,16.30
2022-08-28T23:07:25.243Z,16.30
2022-08-28T23:09:53.401Z,16.20
2022-08-28T23:12:21.588Z,16.20
2022-08-28T23:14:50.213Z,16.20
2022-08-28T23:17:18.822Z,16.20
2022-08-28T23:19:48.268Z,16.20
2022-08-28T23:22:17.512Z,16.20
2022-08-28T23:24:48.807Z,16.30
2022-08-28T23:27:35.872Z,16.20
2022-08-28T23:30:07.061Z,16.20
2022-08-28T23:32:35.751Z,16.20
2022-08-28T23:35:07.367Z,16.20
2022-08-28T23:37:36.731Z,16.20
2022-08-28T23:40:10.468Z,16.20
2022-08-28T23:42:42.593Z,16.20
2022-08-28T23:45:13.025Z,16.20
2022-08-28T23:47:42.101Z,16.20
2022-08-28T23:50:13.417Z,16.30
2022-08-28T23:52:43.137Z,16.20
2022-08-28T23:55:15.394Z,16.20
2022-08-28T23:57:44.462Z,16.20
